Time;durP1;ratioP1;P1;durP2;ratioP2;P2;SDS_P1;SDS_P2;PMS_P1;PMS_P2;Temp;Humidity;BMP_temperature;BMP_pressure;BME280_temperature;BME280_humidity;BME280_pressure;Samples;Min_cycle;Max_cycle;Signal;HPM_P1;HPM_P2
2021/05/06 00:33:50;;;;;;;1.60;0.43;;;;;;;-143.37;100.00;65745.06;5113302;28;20241;-69
2021/05/06 00:36:16;;;;;;;0.37;0.33;;;;;;;-143.37;100.00;65745.06;5077829;28;20310;-68
2021/05/06 00:38:48;;;;;;;0.60;0.47;;;;;;;-143.37;100.00;65745.06;5113225;28;20239;-69
2021/05/06 00:44:28;;;;;;;0.33;0.20;;;;;;;-143.37;100.00;65745.06;5113157;28;20290;-68
2021/05/06 01:34:18;;;;;;;0.33;0.33;;;;;;;;;;5109659;27;20515;-67
2021/05/06 01:36:49;;;;;;;0.40;0.40;;;;;;;;;;5109447;28;20216;-69
2021/05/06 01:39:38;;;;;;;1.67;0.50;;;;;;;;;;5108617;28;20223;-69
2021/05/06 01:47:34;;;;;;;0.50;0.50;;;;;;;;;;5088920;28;20231;-68
2021/05/06 02:00:43;;;;;;;0.57;0.40;;;;;;;;;;5109761;28;20208;-67
2021/05/06 02:03:09;;;;;;;0.30;0.30;;;;;;;;;;5109587;28;20325;-67
2021/05/06 02:05:35;;;;;;;0.40;0.40;;;;;;;;;;5109057;28;20204;-67
2021/05/06 02:08:02;;;;;;;0.20;0.20;;;;;;;;;;5107941;28;20222;-68
2021/05/06 02:10:28;;;;;;;0.13;0.13;;;;;;;;;;5109349;28;20204;-68
2021/05/06 02:12:54;;;;;;;0.57;0.37;;;;;;;;;;5107824;28;20323;-69
2021/05/06 02:15:27;;;;;;;0.30;0.30;;;;;;;;;;5107662;28;20228;-69
2021/05/06 02:17:54;;;;;;;0.30;0.30;;;;;;;;;;5108922;28;20251;-69
2021/05/06 02:20:20;;;;;;;0.90;0.50;;;;;;;;;;5108799;28;20231;-69
2021/05/06 02:22:50;;;;;;;0.30;0.30;;;;;;;;;;5107781;28;20224;-68
2021/05/06 02:25:16;;;;;;;0.33;0.33;;;;;;;;;;5107480;28;20281;-68
2021/05/06 02:27:42;;;;;;;0.60;0.33;;;;;;;;;;5108565;28;20333;-67
2021/05/06 02:30:09;;;;;;;0.30;0.30;;;;;;;;;;5109216;28;20207;-68
2021/05/06 02:32:35;;;;;;;0.27;0.27;;;;;;;;;;5108741;27;20310;-70
2021/05/06 02:35:01;;;;;;;0.40;0.40;;;;;;;;;;5108327;28;20235;-67
2021/05/06 02:37:28;;;;;;;2.80;0.67;;;;;;;;;;5108796;28;20224;-70
2021/05/06 02:39:54;;;;;;;0.73;0.67;;;;;;;;;;5108585;28;20262;-68
2021/05/06 02:42:20;;;;;;;0.20;0.20;;;;;;;;;;5107449;28;20220;-71
2021/05/06 02:44:46;;;;;;;0.60;0.50;;;;;;;;;;5078774;28;20211;-70
2021/05/06 02:47:12;;;;;;;0.60;0.30;;;;;;;;;;5074450;28;20225;-71
2021/05/06 02:49:44;;;;;;;0.87;0.70;;;;;;;;;;5089058;28;20200;-68
2021/05/06 02:52:27;;;;;;;0.40;0.40;;;;;;;;;;5114164;28;20232;-68
2021/05/06 02:55:02;;;;;;;0.40;0.33;;;;;;;;;;5114877;28;20200;-69
2021/05/06 02:57:55;;;;;;;1.03;0.57;;;;;;;;;;5109447;28;20224;-68
2021/05/06 03:02:59;;;;;;;0.23;0.23;;;;;;;;;;5094363;28;20322;-68
2021/05/06 03:05:28;;;;;;;0.70;0.40;;;;;;;;;;5093374;28;20295;-68
2021/05/06 03:23:39;;;;;;;1.80;0.77;;;;;;;;;;5094217;28;20268;-68
2021/05/06 03:26:05;;;;;;;1.33;0.67;;;;;;;;;;5093871;28;20290;-69
2021/05/06 03:28:36;;;;;;;0.50;0.50;;;;;;;;;;5092996;28;20200;-69
2021/05/06 03:42:13;;;;;;;0.30;0.30;;;;;;;;;;5093799;28;20642;-69
2021/05/06 03:44:52;;;;;;;0.63;0.63;;;;;;;;;;5073373;28;20264;-69
2021/05/06 04:27:23;;;;;;;0.87;0.50;;;;;;;;;;5092859;28;20312;-68
2021/05/06 04:37:45;;;;;;;0.83;0.57;;;;;;;;;;5092654;28;20274;-68
2021/05/06 04:41:10;;;;;;;1.30;0.97;;;;;;;;;;5092381;28;20274;-68
2021/05/06 04:46:05;;;;;;;2.27;0.50;;;;;;;;;;5071853;28;20205;-68
2021/05/06 04:54:02;;;;;;;0.73;0.67;;;;;;;;;;5113035;28;20230;-70
2021/05/06 04:56:56;;;;;;;0.57;0.50;;;;;;;;;;5112877;28;20280;-69
2021/05/06 05:03:17;;;;;;;0.40;0.40;;;;;;;;;;5093170;28;20213;-68
2021/05/06 05:04:57;;;;;;;0.47;0.30;;;;;;;;;;5091659;28;20287;-67
2021/05/06 05:07:31;;;;;;;0.40;0.40;;;;;;;;;;5092182;28;20256;-69
2021/05/06 05:10:08;;;;;;;0.43;0.30;;;;;;;;;;5091541;28;20291;-69
2021/05/06 05:13:00;;;;;;;0.57;0.37;;;;;;;;;;5092260;28;20677;-71
2021/05/06 05:23:52;;;;;;;0.20;0.20;;;;;;;;;;5092270;28;20311;-70
2021/05/06 05:26:18;;;;;;;0.27;0.27;;;;;;;;;;5088996;28;20246;-68
2021/05/06 05:28:44;;;;;;;2.80;0.70;;;;;;;;;;5090679;28;20204;-68
2021/05/06 05:31:10;;;;;;;0.40;0.40;;;;;;;;;;5090500;28;20291;-70
2021/05/06 05:33:45;;;;;;;0.57;0.37;;;;;;;;;;5090363;28;20269;-72
2021/05/06 05:38:51;;;;;;;0.53;0.47;;;;;;;;;;5091328;28;20295;-68
2021/05/06 05:41:46;;;;;;;1.23;0.60;;;;;;;;;;5091684;28;20653;-70
2021/05/06 05:55:11;;;;;;;0.53;0.43;;;;;;;;;;5088891;28;20201;-69
2021/05/06 05:57:37;;;;;;;0.57;0.47;;;;;;;;;;5089479;28;20224;-68
2021/05/06 06:00:03;;;;;;;0.30;0.30;;;;;;;;;;5089509;28;20786;-69
2021/05/06 06:02:30;;;;;;;0.50;0.50;;;;;;;;;;5088923;28;20204;-70
2021/05/06 06:04:56;;;;;;;0.30;0.30;;;;;;;;;;5089450;28;20197;-69
2021/05/06 06:07:22;;;;;;;1.30;0.57;;;;;;;;;;5088245;28;20267;-72
2021/05/06 06:09:49;;;;;;;0.23;0.23;;;;;;;;;;5089205;28;20837;-71
2021/05/06 06:12:15;;;;;;;0.33;0.33;;;;;;;;;;5089678;28;20204;-67
2021/05/06 06:15:02;;;;;;;0.27;0.27;;;;;;;;;;5082334;28;20200;-70
2021/05/06 06:17:31;;;;;;;1.33;0.40;;;;;;;;;;5085027;28;20307;-68
2021/05/06 06:19:59;;;;;;;0.50;0.50;;;;;;;;;;5085477;28;20208;-67
2021/05/06 06:22:26;;;;;;;0.70;0.37;;;;;;;;;;5088766;28;20200;-68
2021/05/06 06:24:52;;;;;;;1.27;0.70;;;;;;;;;;5089229;28;20283;-68
2021/05/06 06:27:20;;;;;;;0.30;0.30;;;;;;;;;;5090394;28;20297;-68
2021/05/06 06:29:47;;;;;;;0.37;0.37;;;;;;;;;;5089438;28;20216;-68
2021/05/06 06:32:17;;;;;;;0.63;0.50;;;;;;;;;;5090115;28;20251;-68
2021/05/06 06:34:43;;;;;;;0.47;0.47;;;;;;;;;;5092200;28;20605;-68
2021/05/06 06:37:09;;;;;;;0.70;0.60;;;;;;;;;;5098014;28;20720;-68
2021/05/06 06:39:39;;;;;;;0.40;0.40;;;;;;;;;;5095461;28;20708;-69
2021/05/06 06:42:08;;;;;;;1.07;0.60;;;;;;;;;;5093105;28;20622;-70
2021/05/06 06:44:36;;;;;;;1.47;0.47;;;;;;;;;;5092027;28;20263;-70
2021/05/06 06:47:06;;;;;;;0.73;0.50;;;;;;;;;;5091159;28;20217;-69
2021/05/06 06:49:40;;;;;;;0.60;0.50;;;;;;;;;;5090994;28;20283;-71
2021/05/06 06:52:10;;;;;;;0.30;0.30;;;;;;;;;;5091407;28;20207;-70
2021/05/06 06:54:36;;;;;;;0.63;0.37;;;;;;;;;;5090895;28;20647;-69
2021/05/06 06:57:03;;;;;;;0.97;0.47;;;;;;;;;;5091430;28;20228;-68
2021/05/06 06:59:29;;;;;;;0.50;0.47;;;;;;;;;;5090759;28;20204;-69
2021/05/06 07:01:55;;;;;;;1.17;0.57;;;;;;;;;;5092392;28;20231;-69
2021/05/06 07:04:21;;;;;;;1.17;0.50;;;;;;;;;;5091954;28;20243;-70
2021/05/06 07:06:47;;;;;;;0.37;0.37;;;;;;;;;;5090966;28;20705;-70
2021/05/06 07:09:13;;;;;;;0.60;0.40;;;;;;;;;;5092085;28;20201;-70
2021/05/06 07:11:39;;;;;;;0.43;0.33;;;;;;;;;;5091741;28;20200;-70
2021/05/06 07:14:05;;;;;;;0.30;0.30;;;;;;;;;;5092042;28;20247;-69
2021/05/06 07:16:31;;;;;;;0.33;0.33;;;;;;;;;;5092185;28;20722;-69
2021/05/06 07:18:58;;;;;;;1.30;0.73;;;;;;;;;;5082148;28;22313;-71
2021/05/06 07:21:25;;;;;;;0.57;0.53;;;;;;;;;;5087405;28;20295;-71
2021/05/06 07:23:54;;;;;;;0.40;0.40;;;;;;;;;;5086205;28;20252;-70
2021/05/06 07:26:27;;;;;;;0.27;0.27;;;;;;;;;;5085952;28;20220;-71
2021/05/06 07:28:55;;;;;;;0.50;0.40;;;;;;;;;;5070242;28;20875;-71
2021/05/06 07:31:24;;;;;;;0.50;0.47;;;;;;;;;;5085738;28;20197;-70
2021/05/06 07:33:52;;;;;;;2.07;0.43;;;;;;;;;;5087229;28;20236;-70
2021/05/06 07:36:21;;;;;;;0.90;0.40;;;;;;;;;;5085844;28;20644;-71
2021/05/06 07:38:51;;;;;;;1.73;0.70;;;;;;;;;;5087375;28;20205;-72
2021/05/06 07:41:20;;;;;;;0.40;0.40;;;;;;;;;;5085621;28;20288;-72
2021/05/06 07:43:50;;;;;;;2.65;0.50;;;;;;;;;;5069038;28;20243;-71
2021/05/06 07:46:20;;;;;;;1.55;0.95;;;;;;;;;;5085884;28;20593;-72
2021/05/06 07:48:51;;;;;;;3.08;0.60;;;;;;;;;;5086345;28;20289;-71
2021/05/06 07:51:22;;;;;;;0.60;0.30;;;;;;;;;;5086632;28;20200;-73
2021/05/06 07:53:52;;;;;;;1.95;0.35;;;;;;;;;;5086556;28;20209;-72
2021/05/06 07:56:23;;;;;;;0.40;0.38;;;;;;;;;;5084729;28;20755;-69
2021/05/06 07:58:50;;;;;;;0.80;0.80;;;;;;;;;;5083425;28;20232;-71
2021/05/06 08:01:16;;;;;;;0.45;0.40;;;;;;;;;;5086740;28;20642;-70
2021/05/06 08:03:42;;;;;;;0.70;0.50;;;;;;;;;;5085507;28;20231;-70
2021/05/06 08:06:08;;;;;;;2.15;0.43;;;;;;;;;;5084320;28;20288;-70
2021/05/06 08:08:34;;;;;;;0.85;0.70;;;;;;;;;;5086673;28;20244;-71
2021/05/06 08:11:02;;;;;;;2.25;0.50;;;;;;;;;;5086016;28;20200;-71
2021/05/06 08:13:28;;;;;;;0.47;0.47;;;;;;;;;;5085557;28;20291;-71
2021/05/06 08:15:55;;;;;;;1.67;0.70;;;;;;;;;;5084354;28;20205;-72
2021/05/06 08:18:21;;;;;;;0.77;0.57;;;;;;;;;;5085697;28;20254;-69
2021/05/06 08:20:47;;;;;;;1.50;0.40;;;;;;;;;;5084943;28;20872;-70
2021/05/06 08:23:13;;;;;;;1.92;0.90;;;;;;;;;;5084197;28;20225;-72
2021/05/06 08:25:39;;;;;;;1.30;0.70;;;;;;;;;;5085171;28;20543;-71
2021/05/06 08:28:06;;;;;;;0.65;0.43;;;;;;;;;;5085311;28;20239;-72
2021/05/06 08:30:34;;;;;;;1.58;0.65;;;;;;;;;;5084640;28;20558;-71
2021/05/06 08:33:03;;;;;;;1.13;0.68;;;;;;;;;;5086709;28;20215;-71
2021/05/06 08:35:30;;;;;;;1.13;0.57;;;;;;;;;;5088399;28;20204;-71
2021/05/06 08:37:56;;;;;;;0.73;0.52;;;;;;;;;;5088605;28;20285;-71
2021/05/06 08:40:22;;;;;;;2.30;0.77;;;;;;;;;;5088949;28;20295;-71
2021/05/06 08:42:51;;;;;;;0.50;0.50;;;;;;;;;;5089816;28;20307;-72
2021/05/06 08:45:17;;;;;;;0.87;0.43;;;;;;;;;;5079050;28;20205;-72
2021/05/06 08:47:44;;;;;;;0.20;0.20;;;;;;;;;;5084520;28;20315;-71
2021/05/06 08:50:12;;;;;;;4.43;1.03;;;;;;;;;;5085962;28;20197;-71
2021/05/06 08:52:39;;;;;;;1.03;0.30;;;;;;;;;;5085221;28;20798;-71
2021/05/06 08:55:06;;;;;;;0.87;0.60;;;;;;;;;;5067251;28;20326;-74
2021/05/06 08:57:32;;;;;;;3.40;0.97;;;;;;;;;;5085741;28;20675;-74
2021/05/06 08:59:58;;;;;;;1.13;0.50;;;;;;;;;;5086132;28;20210;-71
2021/05/06 09:02:24;;;;;;;0.90;0.50;;;;;;;;;;5079597;28;20208;-72
2021/05/06 09:04:50;;;;;;;0.77;0.50;;;;;;;;;;5084958;28;20228;-73
2021/05/06 09:07:16;;;;;;;0.60;0.50;;;;;;;;;;5079479;28;20239;-72
2021/05/06 09:09:43;;;;;;;0.43;0.40;;;;;;;;;;5084171;28;20313;-73
2021/05/06 09:12:10;;;;;;;0.67;0.63;;;;;;;;;;5084401;28;20196;-72
2021/05/06 09:14:36;;;;;;;1.43;0.60;;;;;;;;;;5085011;28;20681;-71
2021/05/06 09:17:02;;;;;;;1.20;0.70;;;;;;;;;;5084731;28;20229;-73
2021/05/06 09:19:28;;;;;;;1.70;0.50;;;;;;;;;;5084920;28;20236;-73
2021/05/06 09:21:56;;;;;;;0.53;0.53;;;;;;;;;;5084138;28;20205;-73
2021/05/06 09:24:24;;;;;;;1.07;0.60;;;;;;;;;;5084669;28;20754;-75
2021/05/06 09:27:00;;;;;;;0.97;0.37;;;;;;;;;;5086255;28;20236;-73
2021/05/06 09:29:29;;;;;;;1.33;0.60;;;;;;;;;;5085961;28;20208;-73
2021/05/06 09:32:07;;;;;;;0.43;0.43;;;;;;;;;;5080297;28;20294;-74
2021/05/06 09:34:37;;;;;;;0.90;0.70;;;;;;;;;;5083694;28;21000;-74
2021/05/06 09:37:07;;;;;;;1.33;0.50;;;;;;;;;;5078726;28;20228;-74
2021/05/06 09:39:33;;;;;;;1.87;0.70;;;;;;;;;;5084724;28;20212;-75
2021/05/06 09:42:06;;;;;;;0.40;0.40;;;;;;;;;;5084709;28;20291;-74
2021/05/06 09:44:49;;;;;;;0.50;0.50;;;;;;;;;;5084682;28;20220;-74
2021/05/06 09:47:16;;;;;;;1.17;0.67;;;;;;;;;;5082543;28;20235;-71
2021/05/06 09:49:43;;;;;;;3.80;0.20;;;;;;;;;;5067123;28;20200;-72
2021/05/06 09:52:13;;;;;;;0.60;0.50;;;;;;;;;;5088209;28;20197;-74
2021/05/06 09:54:47;;;;;;;0.50;0.40;;;;;;;;;;5089114;28;20211;-73
2021/05/06 09:57:13;;;;;;;0.50;0.37;;;;;;;;;;5092402;28;20224;-75
2021/05/06 09:59:40;;;;;;;0.40;0.20;;;;;;;;;;5093718;28;20208;-74
2021/05/06 10:02:10;;;;;;;1.17;0.60;;;;;;;;;;5093375;28;20212;-75
2021/05/06 10:04:37;;;;;;;0.37;0.30;;;;;;;;;;5091197;28;20224;-75
2021/05/06 10:07:05;;;;;;;0.53;0.50;;;;;;;;;;5091723;28;20288;-73
2021/05/06 10:09:31;;;;;;;0.30;0.30;;;;;;;;;;5092133;28;20236;-72
2021/05/06 10:11:58;;;;;;;0.90;0.43;;;;;;;;;;5091858;28;20205;-72
2021/05/06 10:14:24;;;;;;;0.40;0.40;;;;;;;;;;5088651;28;20278;-70
2021/05/06 10:16:50;;;;;;;1.60;0.70;;;;;;;;;;5088199;28;20260;-71
2021/05/06 10:19:17;;;;;;;0.30;0.30;;;;;;;;;;5093005;28;20208;-71
2021/05/06 10:21:43;;;;;;;1.50;0.60;;;;;;;;;;5088859;28;20270;-70
2021/05/06 10:24:10;;;;;;;0.83;0.53;;;;;;;;;;5094565;28;20622;-77
2021/05/06 10:26:37;;;;;;;0.60;0.47;;;;;;;;;;5093333;28;20221;-71
2021/05/06 10:29:03;;;;;;;0.37;0.30;;;;;;;;;;5091522;28;20200;-71
2021/05/06 10:31:29;;;;;;;1.07;0.57;;;;;;;;;;5093314;28;20196;-72
2021/05/06 10:33:55;;;;;;;0.47;0.47;;;;;;;;;;5092635;28;20349;-71
2021/05/06 10:36:22;;;;;;;0.47;0.40;;;;;;;;;;5091529;28;20337;-71
2021/05/06 10:38:48;;;;;;;0.30;0.30;;;;;;;;;;5092601;28;20201;-71
2021/05/06 10:41:29;;;;;;;0.80;0.47;;;;;;;;;;5092961;28;20672;-71
2021/05/06 10:43:56;;;;;;;0.43;0.43;;;;;;;;;;5092820;28;20212;-71
2021/05/06 10:46:42;;;;;;;0.97;0.60;;;;;;;;;;5092677;28;20224;-71
2021/05/06 10:49:08;;;;;;;0.67;0.50;;;;;;;;;;5095651;28;20592;-72
2021/05/06 10:51:49;;;;;;;0.40;0.40;;;;;;;;;;5112231;28;20204;-70
2021/05/06 10:54:24;;;;;;;1.03;0.20;;;;;;;;;;5114394;28;20242;-70
2021/05/06 10:56:50;;;;;;;4.67;0.80;;;;;;;;;;5114510;28;20306;-69
2021/05/06 10:59:23;;;;;;;0.50;0.40;;;;;;;;;;5094957;28;20236;-72
2021/05/06 11:01:49;;;;;;;0.30;0.30;;;;;;;;;;5093067;28;20299;-71
2021/05/06 11:04:15;;;;;;;0.73;0.40;;;;;;;;;;5091606;28;20220;-70
2021/05/06 11:06:41;;;;;;;0.83;0.50;;;;;;;;;;5091121;28;20310;-70
2021/05/06 11:09:26;;;;;;;0.37;0.33;;;;;;;;;;5091432;28;20337;-71
2021/05/06 11:12:26;;;;;;;0.27;0.27;;;;;;;;;;5092843;28;20231;-72
2021/05/06 11:14:59;;;;;;;0.37;0.37;;;;;;;;;;5080872;28;20208;-71
2021/05/06 11:17:45;;;;;;;1.07;0.43;;;;;;;;;;5094101;28;20303;-71
2021/05/06 11:20:11;;;;;;;5.27;0.77;;;;;;;;;;5092613;28;20668;-71
2021/05/06 11:22:51;;;;;;;0.40;0.40;;;;;;;;;;5094174;28;20243;-71
2021/05/06 11:25:38;;;;;;;0.37;0.33;;;;;;;;;;5093993;28;20235;-71
2021/05/06 11:28:05;;;;;;;1.93;0.53;;;;;;;;;;5092887;28;20262;-71
2021/05/06 11:30:47;;;;;;;0.60;0.37;;;;;;;;;;5094618;28;20292;-71
2021/05/06 11:33:24;;;;;;;1.10;0.60;;;;;;;;;;5075950;28;20265;-71
2021/05/06 11:36:10;;;;;;;0.87;0.40;;;;;;;;;;5093492;28;20230;-70
2021/05/06 11:38:51;;;;;;;0.87;0.63;;;;;;;;;;5093364;28;20248;-71
2021/05/06 11:41:25;;;;;;;1.00;0.20;;;;;;;;;;5093906;28;20211;-71
2021/05/06 11:43:58;;;;;;;0.67;0.50;;;;;;;;;;5079879;28;20803;-71
2021/05/06 11:46:24;;;;;;;0.30;0.30;;;;;;;;;;5071699;28;20221;-71
2021/05/06 11:48:52;;;;;;;2.40;0.73;;;;;;;;;;5074486;28;20205;-71
2021/05/06 11:51:27;;;;;;;0.57;0.30;;;;;;;;;;5113717;28;20263;-71
2021/05/06 11:54:00;;;;;;;0.83;0.57;;;;;;;;;;5112558;28;20245;-71
2021/05/06 11:56:26;;;;;;;1.90;0.73;;;;;;;;;;5113561;28;20311;-70
2021/05/06 11:58:52;;;;;;;1.13;0.50;;;;;;;;;;5096369;28;20587;-71
2021/05/06 12:01:25;;;;;;;0.47;0.30;;;;;;;;;;5093281;28;20204;-70
2021/05/06 12:03:51;;;;;;;0.37;0.37;;;;;;;;;;5092975;28;20224;-70
2021/05/06 12:06:27;;;;;;;0.40;0.40;;;;;;;;;;5092214;28;20232;-70
2021/05/06 12:08:54;;;;;;;0.60;0.40;;;;;;;;;;5093959;28;20257;-69
2021/05/06 12:11:20;;;;;;;1.70;0.63;;;;;;;;;;5093569;28;20201;-71
2021/05/06 12:13:47;;;;;;;0.87;0.47;;;;;;;;;;5092196;28;20242;-71
2021/05/06 12:16:14;;;;;;;1.13;0.77;;;;;;;;;;5092875;28;20666;-71
2021/05/06 12:18:41;;;;;;;2.10;0.83;;;;;;;;;;5093239;28;20204;-69
2021/05/06 12:21:07;;;;;;;3.20;1.10;;;;;;;;;;5093303;28;20212;-71
2021/05/06 12:23:34;;;;;;;0.33;0.33;;;;;;;;;;5093559;28;20251;-72
2021/05/06 12:26:01;;;;;;;0.43;0.43;;;;;;;;;;5093853;28;20286;-72
2021/05/06 12:28:27;;;;;;;0.73;0.47;;;;;;;;;;5092945;28;20231;-69
2021/05/06 12:31:00;;;;;;;1.80;0.50;;;;;;;;;;5092528;28;20224;-70
2021/05/06 12:33:32;;;;;;;0.30;0.30;;;;;;;;;;5092443;28;20212;-70
2021/05/06 12:35:59;;;;;;;2.10;0.60;;;;;;;;;;5091085;28;20240;-70
2021/05/06 12:38:26;;;;;;;0.30;0.30;;;;;;;;;;5092533;28;20683;-70
2021/05/06 12:40:53;;;;;;;1.00;0.60;;;;;;;;;;5090958;28;20200;-70
2021/05/06 12:43:23;;;;;;;1.37;0.53;;;;;;;;;;5081738;28;20220;-70
2021/05/06 12:46:01;;;;;;;0.50;0.37;;;;;;;;;;5071651;28;20288;-70
2021/05/06 12:48:37;;;;;;;1.13;0.67;;;;;;;;;;5072140;28;20208;-70
2021/05/06 12:51:05;;;;;;;1.43;0.40;;;;;;;;;;5111662;28;20203;-70
2021/05/06 12:53:31;;;;;;;0.53;0.33;;;;;;;;;;5112612;28;20208;-70
2021/05/06 12:55:57;;;;;;;0.47;0.20;;;;;;;;;;5112015;28;20318;-70
2021/05/06 12:58:27;;;;;;;1.33;0.70;;;;;;;;;;5100385;28;20288;-70
2021/05/06 13:00:57;;;;;;;0.50;0.40;;;;;;;;;;5092098;28;20682;-70
2021/05/06 13:03:28;;;;;;;0.10;0.10;;;;;;;;;;5091891;28;20315;-70
2021/05/06 13:05:54;;;;;;;1.20;0.40;;;;;;;;;;5090533;28;20196;-69
2021/05/06 13:08:33;;;;;;;0.63;0.50;;;;;;;;;;5091932;28;20204;-70
2021/05/06 13:11:03;;;;;;;0.37;0.23;;;;;;;;;;5090789;28;20254;-70
2021/05/06 13:13:49;;;;;;;0.40;0.40;;;;;;;;;;5092162;28;20205;-70
2021/05/06 13:16:17;;;;;;;0.27;0.20;;;;;;;;;;5090976;28;20263;-70
2021/05/06 13:18:59;;;;;;;2.93;1.13;;;;;;;;;;5092088;28;20265;-71
2021/05/06 13:21:25;;;;;;;0.80;0.57;;;;;;;;;;5092000;28;20208;-71
2021/05/06 13:23:54;;;;;;;1.73;0.63;;;;;;;;;;5091872;28;20221;-71
2021/05/06 13:26:36;;;;;;;0.40;0.40;;;;;;;;;;5091607;28;20259;-70
2021/05/06 13:29:04;;;;;;;2.20;0.30;;;;;;;;;;5091435;28;20658;-70
2021/05/06 13:31:34;;;;;;;0.73;0.47;;;;;;;;;;5091692;28;20201;-71
2021/05/06 13:34:19;;;;;;;0.57;0.47;;;;;;;;;;5091591;28;20216;-71
2021/05/06 13:36:45;;;;;;;0.97;0.60;;;;;;;;;;5090630;28;20573;-69
2021/05/06 13:39:14;;;;;;;0.50;0.30;;;;;;;;;;5091747;28;20772;-71
2021/05/06 13:41:42;;;;;;;0.53;0.53;;;;;;;;;;5090654;28;20263;-69
2021/05/06 13:44:09;;;;;;;0.20;0.17;;;;;;;;;;5074643;28;20217;-70
2021/05/06 13:46:42;;;;;;;0.67;0.50;;;;;;;;;;5071421;28;20594;-69
2021/05/06 13:49:08;;;;;;;0.67;0.67;;;;;;;;;;5077653;28;20689;-72
2021/05/06 13:51:34;;;;;;;0.73;0.50;;;;;;;;;;5112250;28;20204;-71
2021/05/06 13:54:00;;;;;;;2.03;0.77;;;;;;;;;;5111771;28;20207;-69
2021/05/06 13:56:26;;;;;;;6.73;0.90;;;;;;;;;;5110245;28;20253;-70
2021/05/06 13:58:52;;;;;;;0.73;0.40;;;;;;;;;;5095690;28;20266;-71
2021/05/06 14:01:19;;;;;;;0.30;0.30;;;;;;;;;;5091745;28;20205;-72
2021/05/06 14:03:45;;;;;;;0.20;0.20;;;;;;;;;;5091120;28;20224;-71
2021/05/06 14:06:11;;;;;;;0.80;0.50;;;;;;;;;;5090729;28;20797;-71
2021/05/06 14:08:37;;;;;;;0.30;0.30;;;;;;;;;;5089874;28;20209;-72
2021/05/06 14:11:03;;;;;;;1.83;0.67;;;;;;;;;;5091247;28;20316;-71
2021/05/06 14:13:31;;;;;;;0.43;0.37;;;;;;;;;;5091104;28;20232;-71
2021/05/06 14:15:58;;;;;;;1.27;0.67;;;;;;;;;;5086604;28;20259;-72
2021/05/06 14:18:24;;;;;;;0.57;0.40;;;;;;;;;;5079819;28;20213;-71
2021/05/06 14:20:52;;;;;;;1.53;0.60;;;;;;;;;;5087053;28;20215;-71
2021/05/06 14:23:18;;;;;;;0.67;0.43;;;;;;;;;;5085582;28;20707;-72
2021/05/06 14:25:45;;;;;;;1.03;0.50;;;;;;;;;;5085635;28;20232;-71
2021/05/06 14:28:11;;;;;;;2.73;0.70;;;;;;;;;;5088053;28;20574;-71
2021/05/06 14:30:37;;;;;;;2.10;0.93;;;;;;;;;;5088421;28;20721;-71
2021/05/06 14:33:03;;;;;;;1.53;0.20;;;;;;;;;;5064857;28;21240;-73
2021/05/06 14:35:30;;;;;;;1.37;0.53;;;;;;;;;;5069170;28;20202;-74
2021/05/06 14:37:56;;;;;;;0.70;0.60;;;;;;;;;;5066895;28;20233;-74
2021/05/06 14:40:22;;;;;;;0.73;0.73;;;;;;;;;;5075845;28;20232;-73
2021/05/06 14:42:48;;;;;;;0.73;0.50;;;;;;;;;;5089275;28;20748;-71
2021/05/06 14:45:15;;;;;;;1.23;0.60;;;;;;;;;;5083888;28;20224;-72
2021/05/06 14:47:41;;;;;;;1.10;0.47;;;;;;;;;;5087483;28;20316;-74
2021/05/06 14:50:08;;;;;;;0.27;0.27;;;;;;;;;;5088863;28;20229;-73
2021/05/06 14:52:34;;;;;;;0.87;0.47;;;;;;;;;;5082707;28;20292;-72
2021/05/06 14:55:00;;;;;;;0.40;0.40;;;;;;;;;;5087983;28;20243;-71
2021/05/06 14:57:26;;;;;;;0.73;0.40;;;;;;;;;;5088588;28;20220;-72
2021/05/06 14:59:52;;;;;;;0.40;0.40;;;;;;;;;;5089725;28;20295;-71
2021/05/06 15:02:18;;;;;;;0.37;0.30;;;;;;;;;;5089069;28;20204;-71
2021/05/06 15:04:44;;;;;;;0.57;0.57;;;;;;;;;;5089276;28;20716;-73
2021/05/06 15:07:10;;;;;;;0.63;0.40;;;;;;;;;;5086916;28;20235;-73
2021/05/06 15:09:36;;;;;;;0.43;0.33;;;;;;;;;;5092795;28;20214;-75
2021/05/06 15:12:02;;;;;;;0.63;0.50;;;;;;;;;;5091615;28;20226;-69
2021/05/06 15:14:28;;;;;;;0.97;0.47;;;;;;;;;;5079662;28;20287;-73
2021/05/06 15:16:54;;;;;;;1.43;0.90;;;;;;;;;;5089474;28;20316;-71
2021/05/06 15:19:21;;;;;;;0.37;0.37;;;;;;;;;;5082179;28;20201;-71
2021/05/06 15:21:46;;;;;;;0.70;0.50;;;;;;;;;;5082881;28;20254;-69
2021/05/06 15:24:13;;;;;;;0.57;0.57;;;;;;;;;;5080178;28;20228;-70
2021/05/06 15:26:39;;;;;;;0.40;0.40;;;;;;;;;;5087130;28;20672;-71
2021/05/06 15:29:04;;;;;;;0.17;0.13;;;;;;;;;;5086214;28;20258;-72
2021/05/06 15:31:31;;;;;;;0.40;0.40;;;;;;;;;;5087680;28;20208;-70
2021/05/06 15:33:57;;;;;;;1.73;0.90;;;;;;;;;;5084014;28;20258;-71
2021/05/06 15:36:23;;;;;;;1.00;0.40;;;;;;;;;;5081001;28;20221;-71
2021/05/06 15:38:50;;;;;;;0.50;0.50;;;;;;;;;;5077673;28;20262;-70
2021/05/06 15:41:16;;;;;;;1.00;0.30;;;;;;;;;;5083145;28;20235;-72
2021/05/06 15:43:42;;;;;;;0.50;0.27;;;;;;;;;;5078030;28;20220;-70
2021/05/06 15:46:16;;;;;;;1.73;0.33;;;;;;;;;;5083928;28;20228;-71
2021/05/06 15:48:42;;;;;;;1.17;0.50;;;;;;;;;;5086808;28;20276;-71
2021/05/06 15:51:08;;;;;;;0.57;0.57;;;;;;;;;;5080938;28;20203;-71
2021/05/06 15:53:34;;;;;;;0.87;0.70;;;;;;;;;;5086974;28;20765;-69
2021/05/06 15:56:01;;;;;;;0.47;0.43;;;;;;;;;;5086810;28;20234;-71
2021/05/06 15:58:27;;;;;;;0.80;0.53;;;;;;;;;;5085711;28;20232;-69
2021/05/06 16:00:59;;;;;;;1.07;0.47;;;;;;;;;;5086148;28;20211;-71
2021/05/06 16:03:31;;;;;;;0.53;0.37;;;;;;;;;;5086867;28;20208;-70
2021/05/06 16:05:57;;;;;;;0.40;0.40;;;;;;;;;;5085833;28;20731;-71
2021/05/06 16:08:24;;;;;;;1.13;0.77;;;;;;;;;;5086836;28;20196;-72
2021/05/06 16:10:53;;;;;;;0.57;0.50;;;;;;;;;;5085932;28;20247;-71
2021/05/06 16:13:19;;;;;;;0.57;0.37;;;;;;;;;;5087791;28;20220;-72
2021/05/06 16:15:48;;;;;;;0.40;0.40;;;;;;;;;;5084394;28;20640;-72
2021/05/06 16:18:14;;;;;;;0.60;0.60;;;;;;;;;;5086079;28;20292;-69
2021/05/06 16:20:41;;;;;;;3.30;0.73;;;;;;;;;;5085465;28;20281;-73
2021/05/06 16:23:09;;;;;;;1.33;0.60;;;;;;;;;;5086192;28;20212;-72
2021/05/06 16:25:35;;;;;;;0.40;0.40;;;;;;;;;;5088595;28;20232;-72
2021/05/06 16:28:03;;;;;;;1.20;0.80;;;;;;;;;;5086969;28;20223;-72
2021/05/06 16:30:29;;;;;;;0.77;0.40;;;;;;;;;;5086580;28;20228;-67
2021/05/06 16:32:58;;;;;;;0.33;0.33;;;;;;;;;;5083496;28;20257;-68
2021/05/06 16:35:28;;;;;;;0.83;0.40;;;;;;;;;;5080471;28;20240;-71
2021/05/06 16:38:00;;;;;;;0.30;0.30;;;;;;;;;;5086917;28;20217;-73
2021/05/06 16:43:12;;;;;;;0.50;0.50;;;;;;;;;;5086976;28;20196;-73
2021/05/06 16:45:41;;;;;;;0.33;0.33;;;;;;;;;;5083015;28;20234;-69
2021/05/06 16:48:11;;;;;;;0.70;0.70;;;;;;;;;;5089928;28;20270;-69
2021/05/06 16:50:38;;;;;;;2.87;0.73;;;;;;;;;;5101598;28;20681;-75
2021/05/06 16:53:04;;;;;;;0.80;0.60;;;;;;;;;;5108908;28;20196;-71
2021/05/06 16:55:30;;;;;;;0.40;0.40;;;;;;;;;;5086394;28;20216;-76
2021/05/06 16:57:56;;;;;;;0.40;0.40;;;;;;;;;;5089058;28;20220;-72
2021/05/06 17:00:23;;;;;;;2.53;0.57;;;;;;;;;;5090594;28;20204;-71
2021/05/06 17:02:52;;;;;;;1.37;0.87;;;;;;;;;;5089881;28;20813;-73
2021/05/06 17:05:18;;;;;;;0.70;0.60;;;;;;;;;;5088253;28;20307;-69
2021/05/06 17:07:44;;;;;;;0.90;0.50;;;;;;;;;;5090024;28;20216;-70
2021/05/06 17:10:13;;;;;;;0.33;0.33;;;;;;;;;;5090011;28;20329;-68
2021/05/06 17:12:39;;;;;;;1.70;0.80;;;;;;;;;;5090405;28;20287;-70
2021/05/06 17:15:05;;;;;;;1.07;0.70;;;;;;;;;;5089472;28;20239;-69
2021/05/06 17:17:31;;;;;;;0.40;0.40;;;;;;;;;;5089554;28;20269;-69
2021/05/06 17:19:58;;;;;;;0.67;0.40;;;;;;;;;;5090178;28;20204;-69
2021/05/06 17:22:24;;;;;;;0.80;0.80;;;;;;;;;;5089727;28;20214;-69
2021/05/06 17:24:50;;;;;;;1.13;0.50;;;;;;;;;;5089517;28;20239;-69
2021/05/06 17:27:16;;;;;;;0.63;0.63;;;;;;;;;;5089669;28;20311;-69
2021/05/06 17:29:43;;;;;;;0.50;0.50;;;;;;;;;;5090617;28;20204;-68
2021/05/06 17:32:09;;;;;;;0.43;0.43;;;;;;;;;;5089614;28;20646;-68
2021/05/06 17:34:35;;;;;;;1.03;0.93;;;;;;;;;;5088111;28;20224;-70
2021/05/06 17:37:02;;;;;;;2.20;0.77;;;;;;;;;;5089317;28;20648;-71
2021/05/06 17:39:28;;;;;;;0.57;0.50;;;;;;;;;;5089567;28;20235;-70
2021/05/06 17:41:55;;;;;;;0.60;0.60;;;;;;;;;;5089715;28;20200;-71
2021/05/06 17:44:21;;;;;;;0.40;0.33;;;;;;;;;;5088863;28;20688;-70
2021/05/06 17:46:47;;;;;;;1.43;0.77;;;;;;;;;;5088147;28;20224;-74
2021/05/06 17:49:14;;;;;;;1.80;0.97;;;;;;;;;;5092300;28;20699;-72
2021/05/06 17:51:41;;;;;;;0.60;0.60;;;;;;;;;;5109761;28;20200;-72
2021/05/06 17:54:08;;;;;;;2.57;0.37;;;;;;;;;;5108811;28;20240;-74
2021/05/06 17:56:34;;;;;;;2.70;0.73;;;;;;;;;;5108019;28;20223;-74
2021/05/06 17:59:02;;;;;;;0.60;0.60;;;;;;;;;;5092979;28;20208;-72
2021/05/06 18:01:31;;;;;;;2.13;0.60;;;;;;;;;;5088315;28;20212;-72
2021/05/06 18:03:57;;;;;;;0.60;0.53;;;;;;;;;;5088860;28;20697;-72
2021/05/06 18:06:23;;;;;;;1.00;0.70;;;;;;;;;;5087147;28;20825;-69
2021/05/06 18:08:52;;;;;;;2.17;1.53;;;;;;;;;;5089993;28;20208;-72
2021/05/06 18:11:32;;;;;;;0.93;0.70;;;;;;;;;;5090020;28;20258;-72
2021/05/06 18:13:58;;;;;;;0.70;0.60;;;;;;;;;;5088615;28;20294;-71
2021/05/06 18:16:25;;;;;;;1.13;0.83;;;;;;;;;;5092393;28;20228;-72
2021/05/06 18:19:05;;;;;;;1.95;0.98;;;;;;;;;;5092149;28;20452;-67
2021/05/06 18:21:32;;;;;;;0.87;0.57;;;;;;;;;;5090397;28;20661;-69
2021/05/06 18:23:59;;;;;;;1.80;1.03;;;;;;;;;;5093019;28;20319;-69